Aérodrome :
LOGIN :

S'inscrire | Disclaimer

   EN    FR    IT 

 










Légende :    VFR   VFR Marginal   IFR   IFR Intensif   IFR Très Intensif
Visi : 
Plafond : 
>= 8 km
>= 3000ft
5 à 8 km
1000 à 3000 ft
1500m à 5 km
500 à 1000 ft
800 à 1500m
200 à 500 ft
< 800m
< 200 ft
Symboles :   Orages  Brouillard  Fortes neiges  Fortes précipitations  Vent > 20 kt
SIGMETs :   Divers  Orages  Givrage  Turbulence  Onde Orograph.  Cendres Volcan.







- Altitude de l'aérodrome : 194 ft
- Code IATA : IEG


EPZG - Zielona Gora Babimost

DERNIER METAR :
  • 162300Z VRB02KT 0100 R24/0125N FG FEW000 15/15 Q1022

METARs EXPIRÉS :
  • 162230Z VRB01KT 0100 R24/0125N FG FEW000 16/15 Q1022
  • 162200Z VRB02KT 0050 R24/0075N FG VV000 16/15 Q1022
  • 162130Z VRB01KT 0050 R24/0150 FG VV000 16/15 Q1022
  • 162100Z 00000KT 0050 R24/0225N FG VV000 16/15 Q1022
  • 162030Z 00000KT 0400 R24/0400D FG FEW010 16/16 Q1022

TAF TAF EPZG
Valide du 16 à 21h jusqu'au 17 à 06h UTC


162030Z 1621/1706 VRB01KT 0150 FG NSC
TEMPO 1621/1706 0900 FG
BECMG 1621/1624 BKN001
Pas de NOTAMs connus pour ce terrain.



MET'MAP, la Météo Aéronautique d'un coup d'oeil ! - Copyright ORBIFLY Décembre 2007 - Disclaimer

ORBIFLY MET'MAP TEAM :

Programmation & Développement : Alexandra Zaïnal
Conception & Développement : Baudouin d'Aumeries
Co-Programmation & Développement : Marc-Olivier Méhu
Soutien technique & logistique : Manuel Goepfert

Contact : metmap@orbifly.com




SOURCES & CREDITS :

   NOAA